Time;durP1;ratioP1;P1;durP2;ratioP2;P2;SDS_P1;SDS_P2;PMS_P1;PMS_P2;Temp;Humidity;BMP_temperature;BMP_pressure;BME280_temperature;BME280_humidity;BME280_pressure;Samples;Min_cycle;Max_cycle;Signal;HPM_P1;HPM_P2
2022/05/03 00:00:53;;;;;;;10.75;5.63;;;;;;;9.47;100.00;94276.53;5036846;28;20029;-93
2022/05/03 00:03:24;;;;;;;8.57;5.22;;;;;;;9.28;100.00;94282.31;5036134;28;20033;-93
2022/05/03 00:06:10;;;;;;;11.05;5.35;;;;;;;9.36;100.00;94281.00;5036094;28;20025;-93
2022/05/03 00:09:08;;;;;;;;;;;;;;;;;;;;;
2022/05/03 00:11:41;;;;;;;14.00;5.82;;;;;;;9.48;100.00;94271.06;5037081;28;20426;-93
2022/05/03 00:14:16;;;;;;;9.90;5.57;;;;;;;9.53;100.00;94265.03;5036147;28;20029;-93
2022/05/03 00:16:44;;;;;;;11.68;5.65;;;;;;;9.76;100.00;94276.81;5036268;28;20034;-93
2022/05/03 00:19:10;;;;;;;8.23;5.18;;;;;;;9.44;100.00;94271.84;5035933;28;20055;-92
2022/05/03 00:21:40;;;;;;;11.88;5.32;;;;;;;9.62;100.00;94267.94;5035546;28;20091;-92
2022/05/03 00:24:09;;;;;;;9.18;5.13;;;;;;;9.67;100.00;94272.34;5035901;28;20033;-94
2022/05/03 00:26:37;;;;;;;9.27;5.25;;;;;;;9.75;100.00;94264.78;5035756;28;20044;-93
2022/05/03 00:29:06;;;;;;;7.75;5.22;;;;;;;9.69;100.00;94267.66;5035751;28;20374;-93
2022/05/03 00:31:31;;;;;;;10.63;5.45;;;;;;;9.68;100.00;94269.47;5035927;28;20025;-93
2022/05/03 00:34:00;;;;;;;8.57;5.63;;;;;;;9.31;100.00;94257.44;5019407;28;20041;-93
2022/05/03 00:36:36;;;;;;;;;;;;;;;;;;;;;
2022/05/03 00:39:04;;;;;;;9.32;5.97;;;;;;;9.26;100.00;94255.66;5035987;28;20018;-93
2022/05/03 00:41:50;;;;;;;10.27;5.45;;;;;;;9.37;100.00;94261.66;5035617;28;20056;-93
2022/05/03 00:47:32;;;;;;;10.48;5.93;;;;;;;9.38;100.00;94260.59;5035809;28;20047;-93
2022/05/03 00:50:11;;;;;;;9.57;5.13;;;;;;;9.39;100.00;94262.16;5035747;28;20029;-93
2022/05/03 00:52:44;;;;;;;9.65;4.65;;;;;;;9.53;100.00;94256.41;5035524;28;20044;-93
2022/05/03 00:55:42;;;;;;;8.18;5.18;;;;;;;9.55;100.00;94252.50;5019857;28;20036;-93
2022/05/03 00:58:49;;;;;;;13.63;5.32;;;;;;;9.62;100.00;94260.84;5036328;28;20041;-93
2022/05/03 01:01:34;;;;;;;9.18;5.93;;;;;;;9.79;100.00;94264.25;5039937;28;20056;-94
2022/05/03 01:04:43;;;;;;;8.40;5.03;;;;;;;9.85;100.00;94256.13;5039114;28;20116;-93
2022/05/03 01:07:30;;;;;;;10.32;5.72;;;;;;;9.69;100.00;94257.97;4983662;28;20069;-93
2022/05/03 01:10:09;;;;;;;11.15;5.22;;;;;;;9.56;100.00;94255.88;5022878;28;20037;-94
2022/05/03 01:16:08;;;;;;;13.45;5.35;;;;;;;9.78;100.00;94258.22;5039885;28;20032;-94
2022/05/03 01:18:41;;;;;;;7.65;5.10;;;;;;;9.82;100.00;94246.16;5023097;28;20422;-93
2022/05/03 01:21:07;;;;;;;10.65;4.97;;;;;;;9.72;100.00;94249.56;5022663;28;20131;-92
2022/05/03 01:24:00;;;;;;;14.45;6.43;;;;;;;9.80;100.00;94250.09;5038985;28;20034;-92
2022/05/03 01:26:39;;;;;;;10.32;5.35;;;;;;;9.76;100.00;94242.78;5038759;28;20102;-94
2022/05/03 01:29:39;;;;;;;10.85;6.10;;;;;;;9.75;100.00;94251.69;5039033;28;20036;-92
2022/05/03 01:32:15;;;;;;;9.75;5.75;;;;;;;9.64;100.00;94257.97;5023314;28;20076;-93
2022/05/03 01:34:51;;;;;;;8.45;5.20;;;;;;;9.60;100.00;94251.69;5023341;28;20025;-93
2022/05/03 01:37:46;;;;;;;9.98;5.57;;;;;;;9.67;100.00;94249.59;5022399;28;20087;-93
2022/05/03 01:40:18;;;;;;;9.95;5.80;;;;;;;9.75;100.00;94250.88;5023010;28;20029;-94
2022/05/03 01:43:09;;;;;;;9.48;6.10;;;;;;;9.90;100.00;94250.84;5038305;28;20033;-93
2022/05/03 01:45:59;;;;;;;7.75;5.28;;;;;;;9.84;100.00;94249.31;5039392;28;20116;-92
2022/05/03 01:50:18;;;;;;;11.73;5.80;;;;;;;9.89;100.00;94243.25;5038620;28;20064;-94
2022/05/03 01:51:32;;;;;;;8.38;5.40;;;;;;;10.01;100.00;94249.00;5038602;28;20087;-93
2022/05/03 01:54:20;;;;;;;10.95;6.07;;;;;;;9.80;100.00;94242.25;5022461;28;20044;-94
2022/05/03 01:57:24;;;;;;;8.85;5.72;;;;;;;10.18;100.00;94255.75;5009623;28;20080;-94
2022/05/03 02:00:02;;;;;;;12.20;5.85;;;;;;;10.19;100.00;94250.25;5038103;28;20450;-93
2022/05/03 02:02:59;;;;;;;;;;;;;;;;;;;;;
2022/05/03 02:05:55;;;;;;;8.20;5.20;;;;;;;10.34;100.00;94235.53;5038925;28;20021;-93
2022/05/03 02:08:36;;;;;;;12.00;5.65;;;;;;;10.22;100.00;94246.34;5038233;28;20320;-94
2022/05/03 02:11:22;;;;;;;8.35;5.47;;;;;;;10.42;100.00;94247.31;5021997;28;20029;-93
2022/05/03 02:17:16;;;;;;;;;;;;;;;;;;;;;
2022/05/03 02:20:12;;;;;;;8.00;5.78;;;;;;;9.52;100.00;94239.91;5037772;28;20021;-93
2022/05/03 02:26:28;;;;;;;;;;;;;;;;;;;;;
2022/05/03 02:29:08;;;;;;;13.93;6.35;;;;;;;10.05;100.00;94230.94;5037532;28;20028;-93
2022/05/03 02:31:51;;;;;;;8.70;5.63;;;;;;;10.09;100.00;94239.03;5037872;28;20505;-93
2022/05/03 02:34:40;;;;;;;;;;;;;;;;;;;;;
2022/05/03 02:37:18;;;;;;;8.77;5.40;;;;;;;10.34;100.00;94232.91;5038339;28;20021;-94
2022/05/03 02:39:51;;;;;;;9.73;5.40;;;;;;;10.43;100.00;94238.41;5020936;28;20025;-94
2022/05/03 02:42:21;;;;;;;10.23;5.80;;;;;;;10.23;100.00;94236.63;5038148;28;20061;-93
2022/05/03 02:44:58;;;;;;;;;;;;;;;;;;;;;
2022/05/03 02:47:42;;;;;;;8.15;5.25;;;;;;;10.29;100.00;94235.56;5037145;28;20027;-93
2022/05/03 02:50:10;;;;;;;8.60;5.25;;;;;;;10.35;100.00;94231.88;5021801;28;20029;-93
2022/05/03 02:56:20;;;;;;;9.73;5.80;;;;;;;9.65;100.00;94225.53;5037975;28;20354;-93
2022/05/03 03:02:29;;;;;;;8.50;5.57;;;;;;;9.55;100.00;94231.56;5037788;28;20462;-93
2022/05/03 03:05:17;;;;;;;13.50;6.30;;;;;;;9.72;100.00;94218.19;5021705;28;20035;-93
2022/05/03 03:07:55;;;;;;;10.25;5.63;;;;;;;9.62;100.00;94218.22;5036734;28;20021;-93
2022/05/03 03:10:29;;;;;;;10.57;6.10;;;;;;;9.64;100.00;94221.34;5036727;28;20444;-94
2022/05/03 03:13:20;;;;;;;;;;;;;;;;;;;;;
2022/05/03 03:15:57;;;;;;;;;;;;;;;;;;;;;
2022/05/03 03:18:35;;;;;;;9.63;6.00;;;;;;;9.36;100.00;94227.91;5039210;28;20032;-93
2022/05/03 03:21:06;;;;;;;9.90;6.18;;;;;;;9.29;100.00;94226.34;5040323;28;20029;-93
2022/05/03 03:23:34;;;;;;;14.20;7.47;;;;;;;9.59;100.00;94221.34;5040269;28;20029;-94
2022/05/03 03:26:08;;;;;;;11.88;5.90;;;;;;;9.81;100.00;94215.81;5040449;28;20028;-94
2022/05/03 03:28:34;;;;;;;12.50;5.93;;;;;;;9.86;100.00;94221.03;5041159;28;20120;-93
2022/05/03 03:31:02;;;;;;;11.05;6.10;;;;;;;9.88;100.00;94223.38;5040149;28;20016;-93
2022/05/03 03:33:32;;;;;;;10.25;6.55;;;;;;;9.94;100.00;94211.06;5040012;28;20035;-93
2022/05/03 03:36:02;;;;;;;11.30;6.40;;;;;;;9.93;100.00;94215.53;5040604;28;20414;-94
2022/05/03 03:38:55;;;;;;;;;;;;;;;;;;;;;
2022/05/03 03:41:25;;;;;;;10.07;6.10;;;;;;;9.58;100.00;94211.94;5056237;28;20461;-93
2022/05/03 03:44:05;;;;;;;;;;;;;;;;;;;;;
2022/05/03 03:46:35;;;;;;;15.88;7.05;;;;;;;9.71;100.00;94221.09;5056380;28;20025;-94
2022/05/03 03:49:10;;;;;;;;;;;;;;;;;;;;;
2022/05/03 03:51:37;;;;;;;14.38;6.85;;;;;;;9.51;100.00;94225.28;5056103;28;20021;-93
2022/05/03 03:54:10;;;;;;;10.45;6.05;;;;;;;9.69;100.00;94223.94;5040082;28;20337;-94
2022/05/03 03:56:38;;;;;;;10.25;5.97;;;;;;;10.04;100.00;94221.50;5040911;28;20418;-93
2022/05/03 03:59:14;;;;;;;;;;;;;;;;;;;;;
2022/05/03 04:01:43;;;;;;;15.23;6.95;;;;;;;9.66;100.00;94215.84;5055882;28;20029;-93
2022/05/03 04:04:11;;;;;;;12.25;6.97;;;;;;;9.63;100.00;94225.03;5039890;28;20068;-94
2022/05/03 04:06:42;;;;;;;10.82;7.18;;;;;;;9.55;100.00;94226.34;5040050;28;20063;-94
2022/05/03 04:09:10;;;;;;;13.80;7.70;;;;;;;9.57;100.00;94224.25;5040369;28;20033;-93
2022/05/03 04:11:46;;;;;;;14.50;7.10;;;;;;;9.53;100.00;94222.41;5039805;28;20033;-94
2022/05/03 04:14:22;;;;;;;;;;;;;;;;;;;;;
2022/05/03 04:16:51;;;;;;;11.95;7.13;;;;;;;9.67;100.00;94230.47;5055978;28;20023;-93
2022/05/03 04:19:26;;;;;;;12.07;7.22;;;;;;;9.43;100.00;94234.44;5040005;28;20028;-93
2022/05/03 04:21:51;;;;;;;12.68;6.78;;;;;;;9.35;100.00;94240.22;5040642;28;20351;-93
2022/05/03 04:24:22;;;;;;;13.68;7.28;;;;;;;9.34;100.00;94241.25;5039626;28;20033;-92
2022/05/03 04:26:47;;;;;;;15.27;7.25;;;;;;;9.24;100.00;94236.78;5039654;28;20033;-92
2022/05/03 04:29:20;;;;;;;11.63;6.72;;;;;;;9.53;100.00;94243.34;5039164;28;20025;-92
2022/05/03 04:31:45;;;;;;;9.77;6.20;;;;;;;9.81;100.00;94241.22;5056082;28;20053;-92
2022/05/03 04:34:11;;;;;;;9.90;6.35;;;;;;;9.54;100.00;94234.44;5042888;28;20276;-93
2022/05/03 04:36:44;;;;;;;11.18;6.40;;;;;;;9.57;100.00;94244.38;5043094;28;20033;-92
2022/05/03 04:39:11;;;;;;;10.17;6.53;;;;;;;9.78;100.00;94239.13;5044152;28;20032;-92
2022/05/03 04:41:37;;;;;;;10.90;6.55;;;;;;;10.15;100.00;94241.38;5043133;28;20282;-92
2022/05/03 04:44:03;;;;;;;9.85;6.20;;;;;;;10.11;100.00;94242.16;5042681;28;20021;-91
2022/05/03 04:46:28;;;;;;;9.30;6.43;;;;;;;10.10;100.00;94245.84;5043476;28;20025;-91
2022/05/03 04:48:56;;;;;;;9.32;5.82;;;;;;;10.38;100.00;94254.91;5039566;28;20320;-93
2022/05/03 04:51:23;;;;;;;10.75;6.32;;;;;;;10.71;100.00;94255.31;5056141;28;20124;-93
2022/05/03 04:53:59;;;;;;;;;;;;;;;;;;;;;
2022/05/03 04:56:25;;;;;;;11.57;6.18;;;;;;;10.71;100.00;94250.06;5040309;28;20028;-91
2022/05/03 04:58:58;;;;;;;9.38;5.90;;;;;;;10.78;100.00;94257.63;5039141;28;20435;-91
2022/05/03 05:01:27;;;;;;;13.48;6.82;;;;;;;10.84;100.00;94261.03;5039005;28;20037;-92
2022/05/03 05:03:53;;;;;;;9.40;5.90;;;;;;;11.27;100.00;94261.25;5039138;28;20482;-93
2022/05/03 05:06:20;;;;;;;10.80;6.03;;;;;;;11.53;100.00;94262.91;5040500;28;20112;-93
2022/05/03 05:08:46;;;;;;;8.77;6.03;;;;;;;11.71;100.00;94259.56;5039696;28;20060;-92
2022/05/03 05:11:19;;;;;;;8.77;5.40;;;;;;;11.82;100.00;94268.13;5039068;28;20021;-92
2022/05/03 05:13:45;;;;;;;9.30;5.37;;;;;;;12.00;100.00;94266.66;5056322;28;20066;-92
2022/05/03 05:16:15;;;;;;;9.77;5.47;;;;;;;12.27;100.00;94265.34;5059116;28;20102;-91
2022/05/03 05:18:50;;;;;;;;;;;;;;;;;;;;;
2022/05/03 05:21:19;;;;;;;10.88;5.78;;;;;;;12.35;100.00;94256.06;5059726;28;20025;-92
2022/05/03 05:23:45;;;;;;;12.85;5.90;;;;;;;12.43;100.00;94265.97;5058996;28;20418;-92
2022/05/03 05:26:18;;;;;;;8.95;5.95;;;;;;;12.86;100.00;94270.41;5042444;28;20039;-91
2022/05/03 05:28:51;;;;;;;9.93;6.60;;;;;;;13.23;100.00;94275.97;5059232;28;20111;-92
2022/05/03 05:31:16;;;;;;;10.93;6.43;;;;;;;13.12;100.00;94271.91;5058506;28;20426;-92
2022/05/03 05:33:44;;;;;;;9.68;6.28;;;;;;;13.19;100.00;94268.91;5042041;28;20086;-92
2022/05/03 05:36:09;;;;;;;11.88;6.80;;;;;;;13.18;100.00;94270.00;5058394;28;20032;-92
2022/05/03 05:38:35;;;;;;;12.23;6.57;;;;;;;13.33;100.00;94272.38;5058661;28;20080;-92
2022/05/03 05:41:18;;;;;;;9.15;5.78;;;;;;;14.03;100.00;94274.47;5059227;28;20036;-92
2022/05/03 05:43:43;;;;;;;7.85;5.32;;;;;;;13.96;100.00;94275.63;5058291;28;20037;-92
2022/05/03 05:46:12;;;;;;;6.55;5.03;;;;;;;14.39;100.00;94276.44;5041755;28;20029;-92
2022/05/03 05:48:39;;;;;;;8.90;5.38;;;;;;;14.41;100.00;94271.66;5042468;28;20112;-92
2022/05/03 05:51:05;;;;;;;7.70;5.63;;;;;;;14.12;100.00;94278.00;5041819;28;20075;-92
2022/05/03 05:53:33;;;;;;;11.60;5.72;;;;;;;13.90;100.00;94276.78;5041743;28;20028;-92
2022/05/03 05:56:05;;;;;;;8.57;5.07;;;;;;;13.53;100.00;94271.31;5058986;28;20028;-92
2022/05/03 05:58:31;;;;;;;9.10;5.20;;;;;;;13.19;100.00;94276.81;5038674;28;20026;-93
2022/05/03 06:00:57;;;;;;;7.45;5.55;;;;;;;13.25;100.00;94279.09;5038231;28;20136;-92
2022/05/03 06:03:33;;;;;;;;;;;;;;;;;;;;;
2022/05/03 06:06:11;;;;;;;7.50;5.95;;;;;;;12.44;100.00;94285.13;5081364;28;20027;-96
2022/05/03 06:08:56;;;;;;;11.43;5.93;;;;;;;12.86;100.00;94288.06;5084764;28;20024;-96
2022/05/03 06:11:31;;;;;;;;;;;;;;;;;;;;;
2022/05/03 06:13:57;;;;;;;8.43;5.85;;;;;;;12.66;100.00;94287.22;5078734;28;20028;-91
2022/05/03 06:16:25;;;;;;;9.02;5.90;;;;;;;12.73;100.00;94292.94;5077972;28;20533;-94
2022/05/03 06:18:50;;;;;;;9.52;5.97;;;;;;;12.77;100.00;94295.81;5077763;28;20055;-93
2022/05/03 06:21:26;;;;;;;;;;;;;;;;;;;;;
2022/05/03 06:23:52;;;;;;;9.88;5.78;;;;;;;12.66;100.00;94292.50;5077631;28;20028;-92
2022/05/03 06:26:20;;;;;;;9.55;6.18;;;;;;;13.08;100.00;94295.38;5077480;28;20120;-93
2022/05/03 06:28:56;;;;;;;;;;;;;;;;;;;;;
2022/05/03 06:31:24;;;;;;;7.70;5.35;;;;;;;13.43;100.00;94287.25;5077520;28;20019;-93
2022/05/03 06:33:59;;;;;;;;;;;;;;;;;;;;;
2022/05/03 06:36:35;;;;;;;;;;;;;;;;;;;;;
2022/05/03 06:39:13;;;;;;;8.05;5.45;;;;;;;13.84;100.00;94297.16;5077188;28;20024;-94
2022/05/03 06:41:41;;;;;;;9.50;5.68;;;;;;;13.96;100.00;94307.22;5062293;28;20429;-93
2022/05/03 06:44:18;;;;;;;;;;;;;;;;;;;;;
2022/05/03 06:46:47;;;;;;;7.93;5.47;;;;;;;13.98;100.00;94297.19;5077116;28;20043;-93
2022/05/03 06:49:13;;;;;;;8.50;5.75;;;;;;;13.98;100.00;94304.28;5061321;28;20020;-93
2022/05/03 06:51:38;;;;;;;8.65;5.75;;;;;;;14.02;100.00;94304.50;5077259;28;20467;-93
2022/05/03 06:54:07;;;;;;;9.23;5.80;;;;;;;14.32;100.00;94305.81;5076995;28;20459;-93
2022/05/03 06:56:35;;;;;;;10.45;6.43;;;;;;;14.10;100.00;94303.84;5060284;28;20406;-94
2022/05/03 06:59:07;;;;;;;7.70;5.53;;;;;;;14.35;100.00;94299.97;5060767;28;20032;-93
2022/05/03 07:01:43;;;;;;;;;;;;;;;;;;;;;
2022/05/03 07:04:09;;;;;;;14.38;6.93;;;;;;;14.27;100.00;94304.06;5077055;28;20023;-94
2022/05/03 07:06:34;;;;;;;9.50;6.00;;;;;;;14.48;100.00;94308.94;5060663;28;20130;-94
2022/05/03 07:09:10;;;;;;;;;;;;;;;;;;;;;
2022/05/03 07:11:36;;;;;;;9.20;6.60;;;;;;;14.44;100.00;94313.22;5076694;28;20434;-94
2022/05/03 07:14:09;;;;;;;13.32;6.65;;;;;;;14.86;100.00;94307.19;5076893;28;20111;-93
2022/05/03 07:16:44;;;;;;;;;;;;;;;;;;;;;
2022/05/03 07:24:40;;;;;;;13.63;7.47;;;;;;;14.32;100.00;94315.56;5076586;28;20077;-94
2022/05/03 07:27:16;;;;;;;;;;;;;;;;;;;;;
2022/05/03 07:29:52;;;;;;;;;;;;;;;;;;;;;
2022/05/03 07:32:19;;;;;;;9.85;6.70;;;;;;;15.04;100.00;94306.28;5076472;28;20035;-93
2022/05/03 07:34:52;;;;;;;16.42;8.38;;;;;;;15.09;100.00;94313.31;5076248;28;20028;-93
2022/05/03 07:37:23;;;;;;;17.15;8.27;;;;;;;15.00;100.00;94307.94;5060903;28;20119;-96
2022/05/03 07:39:49;;;;;;;14.35;7.20;;;;;;;15.12;100.00;94313.50;5060361;28;20024;-95
2022/05/03 07:42:24;;;;;;;;;;;;;;;;;;;;;
2022/05/03 07:47:55;;;;;;;8.95;6.72;;;;;;;15.63;100.00;94310.78;5062506;28;20352;-95
2022/05/03 07:50:43;;;;;;;9.13;6.07;;;;;;;15.12;100.00;94310.84;5061369;28;20028;-96
2022/05/03 07:56:34;;;;;;;12.50;6.68;;;;;;;15.55;100.00;94317.56;5077233;28;20086;-93
2022/05/03 07:59:08;;;;;;;8.57;6.20;;;;;;;15.68;100.00;94320.44;5076289;28;20025;-94
2022/05/03 08:01:43;;;;;;;8.25;6.18;;;;;;;15.70;100.00;94313.00;5060639;28;20039;-92
2022/05/03 08:04:13;;;;;;;10.38;6.70;;;;;;;15.74;100.00;94321.09;5060810;28;20031;-93
2022/05/03 08:06:39;;;;;;;13.60;6.93;;;;;;;16.08;100.00;94319.78;5059626;28;20484;-93
2022/05/03 08:09:04;;;;;;;9.18;6.65;;;;;;;15.88;100.00;94324.44;5062579;28;20024;-93
2022/05/03 08:11:30;;;;;;;10.02;6.05;;;;;;;16.37;100.00;94316.66;5064127;28;20031;-93
2022/05/03 08:13:56;;;;;;;10.40;5.93;;;;;;;16.66;100.00;94325.16;5063878;28;20028;-92
2022/05/03 08:16:22;;;;;;;9.20;6.25;;;;;;;16.73;100.00;94322.84;5063537;28;20051;-92
2022/05/03 08:18:51;;;;;;;8.73;6.20;;;;;;;16.88;100.00;94321.66;5063669;28;20118;-92
2022/05/03 08:21:17;;;;;;;11.05;6.40;;;;;;;17.24;100.00;94323.28;5063946;28;20024;-92
2022/05/03 08:23:42;;;;;;;9.05;6.32;;;;;;;17.08;100.00;94325.59;5063549;28;20055;-93
2022/05/03 08:26:11;;;;;;;8.07;5.88;;;;;;;17.50;100.00;94330.44;5063217;28;20024;-92
2022/05/03 08:28:36;;;;;;;9.93;5.80;;;;;;;17.19;90.36;94333.22;5063952;28;20032;-93
2022/05/03 08:31:09;;;;;;;8.35;5.78;;;;;;;17.92;86.95;94337.13;5063653;28;20298;-93
2022/05/03 08:33:35;;;;;;;11.40;5.63;;;;;;;17.52;93.84;94333.56;5064578;28;20029;-93
2022/05/03 08:36:00;;;;;;;10.30;5.70;;;;;;;16.84;100.00;94330.50;5063369;28;20024;-94
2022/05/03 08:43:58;;;;;;;11.45;6.00;;;;;;;16.87;99.04;94337.81;5079647;28;20032;-92
2022/05/03 08:46:23;;;;;;;7.47;5.43;;;;;;;17.08;97.96;94328.25;5079405;28;20021;-92
2022/05/03 08:48:54;;;;;;;11.80;5.32;;;;;;;17.70;86.63;94328.25;5063102;28;20032;-91
2022/05/03 08:51:21;;;;;;;8.00;5.80;;;;;;;17.67;100.00;94334.97;5062867;28;20025;-92
2022/05/03 08:53:47;;;;;;;9.35;5.78;;;;;;;17.53;92.01;94342.31;5062963;28;20052;-92
2022/05/03 08:56:13;;;;;;;16.48;5.95;;;;;;;16.79;84.54;94334.06;5063291;28;20119;-91
2022/05/03 08:58:39;;;;;;;8.20;5.90;;;;;;;16.84;99.50;94328.63;5062834;28;20056;-91
2022/05/03 09:01:05;;;;;;;9.90;6.15;;;;;;;17.32;100.00;94337.59;5062103;28;20068;-92
2022/05/03 09:03:30;;;;;;;8.48;4.90;;;;;;;17.64;87.29;94330.28;5063031;28;20067;-93
2022/05/03 09:05:56;;;;;;;9.20;5.25;;;;;;;17.35;89.05;94333.56;5062901;28;20028;-92
2022/05/03 09:08:25;;;;;;;8.88;5.20;;;;;;;17.26;98.00;94333.56;5062654;28;20024;-92
2022/05/03 09:10:53;;;;;;;7.43;5.43;;;;;;;17.53;100.00;94334.34;5063078;28;20123;-92
2022/05/03 09:13:22;;;;;;;6.90;5.28;;;;;;;17.53;87.03;94332.47;5062635;28;20081;-92
2022/05/03 09:16:08;;;;;;;7.60;4.63;;;;;;;16.65;94.93;94332.31;5062769;28;20085;-91
2022/05/03 09:18:34;;;;;;;10.68;4.93;;;;;;;16.97;91.17;94332.25;5062062;28;20026;-91
2022/05/03 09:23:48;;;;;;;6.82;5.18;;;;;;;16.52;100.00;94328.69;5078832;28;20039;-92
2022/05/03 09:26:14;;;;;;;9.77;4.75;;;;;;;16.45;100.00;94331.00;5063022;28;20029;-92
2022/05/03 09:28:52;;;;;;;8.38;5.43;;;;;;;16.33;88.74;94334.22;5062325;28;20055;-92
2022/05/03 09:31:30;;;;;;;7.18;5.57;;;;;;;16.38;91.13;94331.44;5062307;28;20048;-93
2022/05/03 09:33:56;;;;;;;10.48;5.57;;;;;;;16.43;97.96;94338.44;5078604;28;20349;-91
2022/05/03 09:36:22;;;;;;;10.07;6.28;;;;;;;16.76;99.25;94332.03;5078589;28;20021;-92
2022/05/03 09:38:50;;;;;;;12.70;6.53;;;;;;;17.01;98.91;94340.38;5062352;28;20436;-92
2022/05/03 09:41:16;;;;;;;8.57;5.30;;;;;;;17.41;82.29;94331.53;5061903;28;20026;-93
2022/05/03 09:44:03;;;;;;;9.32;4.85;;;;;;;17.54;82.14;94335.91;5062222;28;20376;-92
2022/05/03 09:46:29;;;;;;;10.27;5.53;;;;;;;17.80;84.55;94335.13;5061871;28;20028;-92
2022/05/03 09:48:57;;;;;;;7.20;5.00;;;;;;;17.91;83.08;94332.91;5062020;28;20035;-92
2022/05/03 09:51:23;;;;;;;7.35;4.68;;;;;;;17.44;83.90;94331.72;5061831;28;20021;-92
2022/05/03 09:53:59;;;;;;;10.82;5.03;;;;;;;17.72;94.48;94338.53;5061838;28;20048;-92
2022/05/03 09:56:27;;;;;;;9.02;5.20;;;;;;;17.18;79.09;94331.69;5061584;28;20033;-93
2022/05/03 09:58:56;;;;;;;11.45;5.22;;;;;;;16.98;82.51;94330.38;5061833;28;20024;-92
2022/05/03 10:01:22;;;;;;;11.15;5.53;;;;;;;16.55;88.23;94335.22;5061626;28;20058;-91
2022/05/03 10:03:48;;;;;;;8.43;4.88;;;;;;;16.26;91.79;94328.56;5061627;28;20426;-93
2022/05/03 10:06:14;;;;;;;7.40;5.13;;;;;;;16.45;93.54;94335.50;5061617;28;20028;-91
2022/05/03 10:08:41;;;;;;;9.52;5.40;;;;;;;16.34;90.61;94341.06;5061291;28;20031;-92
2022/05/03 10:11:07;;;;;;;8.20;5.50;;;;;;;16.40;86.58;94333.78;5078043;28;20059;-92
2022/05/03 10:13:32;;;;;;;10.88;6.30;;;;;;;16.73;91.92;94322.06;5061388;28;20025;-92
2022/05/03 10:21:33;;;;;;;7.15;5.07;;;;;;;17.62;91.96;94327.16;5077804;28;20090;-93
2022/05/03 10:24:09;;;;;;;10.82;5.97;;;;;;;17.33;92.13;94315.31;5061316;28;20029;-92
2022/05/03 10:27:10;;;;;;;9.52;5.95;;;;;;;17.76;88.61;94324.38;5061341;28;20020;-92
2022/05/03 10:29:37;;;;;;;9.68;6.60;;;;;;;17.46;87.61;94321.56;4984496;28;20029;-91
2022/05/03 10:32:15;;;;;;;;;;;;;;;;;;;;;
2022/05/03 10:34:54;;;;;;;;;;;;;;;;;;;;;
2022/05/03 10:37:33;;;;;;;9.63;6.18;;;;;;;17.26;100.00;94315.03;5078454;28;20016;-94
2022/05/03 10:40:16;;;;;;;9.65;6.88;;;;;;;17.16;94.12;94304.72;5077636;28;20127;-94
2022/05/03 10:46:14;;;;;;;10.77;7.15;;;;;;;17.10;90.61;94306.75;5078159;28;20468;-94
2022/05/03 10:48:53;;;;;;;;;;;;;;;;;;;;;
2022/05/03 10:51:27;;;;;;;15.93;8.55;;;;;;;17.83;95.85;94307.19;5077492;28;20469;-94
2022/05/03 10:54:07;;;;;;;13.45;9.15;;;;;;;17.89;100.00;94296.13;5061810;28;20029;-95
2022/05/03 10:56:33;;;;;;;14.18;7.57;;;;;;;17.99;91.91;94302.19;5061490;28;20051;-93
2022/05/03 10:59:14;;;;;;;11.77;7.85;;;;;;;18.17;93.23;94302.97;5061056;28;20067;-94
2022/05/03 11:02:07;;;;;;;;;;;;;;;;;;;;;
2022/05/03 11:04:35;;;;;;;;;;;;;;;18.04;78.65;94299.38;5078738;28;20016;-95
2022/05/03 11:07:01;;;;;;;11.30;6.38;;;;;;;18.04;99.16;94302.84;5076870;28;19908;-93
2022/05/03 11:09:32;;;;;;;14.27;7.40;;;;;;;18.18;97.41;94294.66;5076585;28;20315;-94
2022/05/03 11:12:11;;;;;;;15.65;8.93;;;;;;;18.14;83.10;94298.25;5061144;28;20051;-94
2022/05/03 11:14:38;;;;;;;12.00;8.30;;;;;;;18.22;87.74;94298.25;5063850;28;20039;-94
2022/05/03 11:17:09;;;;;;;15.32;8.25;;;;;;;18.20;82.29;94295.13;5077300;28;20038;-95
2022/05/03 11:19:47;;;;;;;;;;;;;;;;;;;;;
2022/05/03 11:25:45;;;;;;;12.30;7.10;;;;;;;18.82;98.79;94288.78;5077838;28;20028;-94
2022/05/03 11:28:47;;;;;;;12.85;7.57;;;;;;;18.75;87.08;94284.75;5061118;28;20137;-94
2022/05/03 11:31:33;;;;;;;;;;;;;;;;;;;;;
2022/05/03 11:34:13;;;;;;;;;;;;;;;;;;;;;
2022/05/03 11:36:50;;;;;;;11.00;7.65;;;;;;;18.10;82.00;94290.19;5078327;28;20034;-94
2022/05/03 11:39:23;;;;;;;13.82;7.05;;;;;;;18.26;81.57;94279.81;5061502;28;20024;-95
2022/05/03 11:41:49;;;;;;;12.65;7.80;;;;;;;18.11;92.37;94285.66;5060571;28;20453;-93
2022/05/03 11:44:17;;;;;;;15.40;7.80;;;;;;;18.44;84.10;94288.50;5076174;28;20025;-95
2022/05/03 11:46:45;;;;;;;9.15;7.22;;;;;;;18.16;90.15;94274.88;5060318;28;20120;-95
2022/05/03 11:49:13;;;;;;;13.80;7.22;;;;;;;18.31;84.15;94281.53;5060222;28;20025;-94
2022/05/03 11:57:19;;;;;;;13.82;7.47;;;;;;;18.00;88.22;94275.34;5076630;28;20074;-94
2022/05/03 11:59:53;;;;;;;12.02;7.05;;;;;;;18.74;99.85;94279.78;5076179;28;20027;-94
2022/05/03 12:02:35;;;;;;;11.18;7.32;;;;;;;18.56;83.74;94273.78;5060890;28;20036;-94
2022/05/03 12:05:07;;;;;;;12.65;7.22;;;;;;;18.56;85.18;94276.44;5060199;28;20031;-95
2022/05/03 12:08:07;;;;;;;14.20;8.37;;;;;;;18.43;78.12;94271.03;5076222;28;20031;-94
2022/05/03 12:10:45;;;;;;;;;;;;;;;;;;;;;
2022/05/03 12:13:17;;;;;;;13.07;7.07;;;;;;;19.38;76.45;94262.00;5076564;28;20024;-95
2022/05/03 12:16:03;;;;;;;12.45;7.32;;;;;;;19.47;70.16;94261.94;5076172;28;20028;-94
2022/05/03 12:18:32;;;;;;;10.38;7.00;;;;;;;19.26;71.96;94251.31;5060158;28;20033;-95
2022/05/03 12:21:05;;;;;;;14.32;8.02;;;;;;;18.65;71.82;94262.00;5060350;28;20029;-95
2022/05/03 12:23:40;;;;;;;;;;;;;;;;;;;;;
2022/05/03 12:26:28;;;;;;;8.93;5.82;;;;;;;18.21;75.71;94262.22;5076874;28;20029;-94
2022/05/03 12:28:58;;;;;;;14.07;8.02;;;;;;;18.51;74.20;94261.47;5059682;28;20147;-91
2022/05/03 12:31:40;;;;;;;;;;;;;;;;;;;;;
2022/05/03 12:34:11;;;;;;;10.88;7.28;;;;;;;19.14;80.89;94252.81;5075781;28;20016;-94
2022/05/03 12:36:54;;;;;;;;;;;;;;;;;;;;;
2022/05/03 12:39:32;;;;;;;;;;;;;;;;;;;;;
2022/05/03 12:42:10;;;;;;;;;;;;;;;;;;;;;
2022/05/03 12:44:57;;;;;;;11.25;7.35;;;;;;;18.59;70.47;94257.22;5075742;28;20028;-95
2022/05/03 12:47:45;;;;;;;10.90;7.30;;;;;;;18.36;68.80;94257.47;5060538;28;20078;-95
2022/05/03 12:50:20;;;;;;;;;;;;;;;;;;;;;
2022/05/03 12:52:49;;;;;;;9.52;6.80;;;;;;;18.89;72.34;94252.66;5075697;28;20035;-93
2022/05/03 12:55:24;;;;;;;;;;;;;;;;;;;;;
2022/05/03 13:00:41;;;;;;;11.15;7.53;;;;;;;19.06;73.71;94243.81;5079317;28;20035;-94
2022/05/03 13:03:10;;;;;;;11.10;7.87;;;;;;;19.04;77.59;94240.72;5063556;28;20118;-94
2022/05/03 13:05:36;;;;;;;14.15;7.78;;;;;;;20.08;64.42;94236.63;5063084;28;20028;-95
2022/05/03 13:08:01;;;;;;;12.35;7.72;;;;;;;19.78;67.64;94237.56;5062561;28;20123;-95
2022/05/03 13:10:27;;;;;;;9.65;6.30;;;;;;;20.64;65.56;94232.63;5062379;28;20034;-94
2022/05/03 13:12:52;;;;;;;10.90;6.43;;;;;;;20.45;65.55;94233.22;5062535;28;20044;-94
2022/05/03 13:15:18;;;;;;;10.00;5.57;;;;;;;20.37;67.73;94224.25;5062787;28;20025;-94
2022/05/03 13:17:46;;;;;;;13.05;6.50;;;;;;;19.76;68.09;94229.16;5062842;28;20063;-95
2022/05/03 13:20:18;;;;;;;11.68;7.68;;;;;;;19.48;66.71;94231.59;5062631;28;20032;-94
2022/05/03 13:22:47;;;;;;;11.23;6.43;;;;;;;19.56;67.50;94230.75;5063460;28;20028;-93
2022/05/03 13:25:13;;;;;;;12.65;7.22;;;;;;;18.42;72.14;94227.03;5062599;28;20028;-94
2022/05/03 13:27:41;;;;;;;11.52;8.02;;;;;;;18.67;67.86;94223.75;5062856;28;20027;-96
2022/05/03 13:30:10;;;;;;;15.13;8.05;;;;;;;19.15;63.03;94221.75;5062705;28;20123;-95
2022/05/03 13:32:37;;;;;;;11.90;7.65;;;;;;;20.22;64.46;94219.56;5062718;28;20118;-95
2022/05/03 13:35:04;;;;;;;14.25;6.90;;;;;;;20.62;64.74;94210.91;5078632;28;20024;-94
2022/05/03 13:40:28;;;;;;;9.77;6.53;;;;;;;20.57;58.76;94213.81;5080038;28;20035;-94
2022/05/03 13:43:04;;;;;;;;;;;;;;;;;;;;;
2022/05/03 13:45:30;;;;;;;10.02;6.38;;;;;;;19.21;60.73;94209.78;5079784;28;20023;-95
2022/05/03 13:47:59;;;;;;;9.02;6.28;;;;;;;20.73;66.56;94200.56;5079373;28;20106;-95
2022/05/03 13:50:24;;;;;;;7.88;5.40;;;;;;;21.47;59.01;94204.91;5078433;28;20058;-95
2022/05/03 13:52:52;;;;;;;8.60;5.30;;;;;;;21.95;56.35;94202.34;5062095;28;20119;-94
2022/05/03 13:55:18;;;;;;;6.70;5.00;;;;;;;22.50;54.30;94198.25;5079262;28;20028;-94
2022/05/03 13:57:47;;;;;;;7.95;4.65;;;;;;;20.95;55.22;94194.03;5079312;28;20473;-94